Time;durP1;ratioP1;P1;durP2;ratioP2;P2;SDS_P1;SDS_P2;PMS_P1;PMS_P2;Temp;Humidity;BMP_temperature;BMP_pressure;BME280_temperature;BME280_humidity;BME280_pressure;Samples;Min_cycle;Max_cycle;Signal;HPM_P1;HPM_P2
2022/09/08 00:00:16;;;;;;;6.50;2.70;;;;;;;21.04;70.36;100957.47;4941435;28;20705;-55
2022/09/08 00:02:41;;;;;;;6.82;2.90;;;;;;;21.05;70.19;100951.28;4963758;28;20110;-52
2022/09/08 00:05:08;;;;;;;6.93;3.00;;;;;;;21.02;70.54;100956.69;4948206;28;20149;-55
2022/09/08 00:07:35;;;;;;;8.27;2.85;;;;;;;21.06;70.50;100952.16;4949881;28;20041;-53
2022/09/08 00:10:02;;;;;;;6.65;2.80;;;;;;;21.09;70.50;100954.72;4932872;28;20539;-56
2022/09/08 00:12:27;;;;;;;6.45;2.83;;;;;;;21.06;70.75;100950.38;4947992;28;20072;-53
2022/09/08 00:14:55;;;;;;;7.45;3.00;;;;;;;21.09;70.75;100946.78;4943900;28;20453;-54
2022/09/08 00:17:21;;;;;;;8.93;3.22;;;;;;;21.09;70.85;100951.19;4944710;28;20129;-53
2022/09/08 00:19:47;;;;;;;5.68;3.10;;;;;;;21.08;71.01;100947.69;4938805;28;20045;-57
2022/09/08 00:22:13;;;;;;;7.88;3.35;;;;;;;21.15;70.67;100943.06;4942501;28;20047;-54
2022/09/08 00:24:41;;;;;;;10.77;3.60;;;;;;;21.16;70.63;100937.75;4949347;28;20129;-54
2022/09/08 00:27:06;;;;;;;8.50;3.60;;;;;;;21.18;70.59;100935.91;4938716;28;20587;-53
2022/09/08 00:29:33;;;;;;;8.10;3.58;;;;;;;21.16;70.58;100934.25;4947853;28;20030;-55
2022/09/08 00:31:59;;;;;;;8.07;3.78;;;;;;;21.19;70.74;100929.72;4932549;28;20041;-56
2022/09/08 00:34:24;;;;;;;5.95;3.42;;;;;;;21.17;70.91;100930.66;4951141;28;20010;-56
2022/09/08 00:36:50;;;;;;;8.80;3.42;;;;;;;21.27;70.52;100922.41;4938120;28;20609;-53
2022/09/08 00:39:15;;;;;;;8.70;3.53;;;;;;;21.28;70.50;100920.63;4945662;28;20492;-54
2022/09/08 00:41:42;;;;;;;7.40;3.90;;;;;;;21.32;70.16;100915.19;4943662;28;20030;-51
2022/09/08 00:44:38;;;;;;;7.38;3.70;;;;;;;21.18;70.68;100917.34;4930220;28;20481;-53
2022/09/08 00:47:10;;;;;;;7.63;3.83;;;;;;;21.14;70.99;100913.03;4931577;28;20030;-53
2022/09/08 00:49:35;;;;;;;7.38;3.88;;;;;;;21.18;70.88;100911.19;4946794;28;20085;-53
2022/09/08 00:52:01;;;;;;;9.27;4.10;;;;;;;21.14;70.94;100898.91;4914207;28;20578;-53
2022/09/08 00:54:26;;;;;;;8.40;4.05;;;;;;;21.13;70.81;100903.34;4921446;28;20899;-54
2022/09/08 00:56:54;;;;;;;10.38;4.20;;;;;;;21.12;70.87;100906.91;4942271;28;20050;-56
2022/09/08 00:59:20;;;;;;;7.82;4.18;;;;;;;21.09;71.25;100903.50;4942142;28;20581;-54
2022/09/08 01:01:47;;;;;;;11.27;4.50;;;;;;;21.08;71.32;100899.97;4949657;28;20034;-55
2022/09/08 01:04:13;;;;;;;9.77;4.50;;;;;;;21.09;71.27;100893.75;4949254;28;20042;-56
2022/09/08 01:12:46;;;;;;;13.77;5.60;;;;;;;21.15;71.53;100895.34;4935428;28;20209;-54
2022/09/08 01:15:18;;;;;;;9.77;4.97;;;;;;;21.18;71.31;100890.84;4950133;28;20136;-55
2022/09/08 01:17:48;;;;;;;13.43;5.38;;;;;;;21.21;71.25;100892.56;4950161;28;20042;-54
2022/09/08 01:20:16;;;;;;;12.45;5.80;;;;;;;21.17;71.41;100893.53;4943638;28;20058;-53
2022/09/08 01:23:00;;;;;;;14.80;6.43;;;;;;;21.09;71.90;100903.50;4945239;28;20425;-53
2022/09/08 01:25:44;;;;;;;14.73;6.15;;;;;;;20.86;73.16;100901.50;4950431;28;20389;-56
2022/09/08 01:28:16;;;;;;;11.75;5.78;;;;;;;21.02;72.33;100908.97;4929034;28;20058;-58
2022/09/08 01:30:42;;;;;;;15.35;5.93;;;;;;;20.93;72.91;100897.75;4950609;28;20022;-56
2022/09/08 01:33:11;;;;;;;12.80;5.18;;;;;;;21.14;72.18;100891.81;4945851;28;20058;-56
2022/09/08 01:35:38;;;;;;;13.85;5.82;;;;;;;21.16;71.91;100897.13;4944184;28;20545;-49
2022/09/08 01:38:04;;;;;;;12.40;5.95;;;;;;;21.03;72.39;100893.94;4938661;28;20069;-52
2022/09/08 01:40:30;;;;;;;11.25;5.40;;;;;;;21.13;72.21;100889.22;4939392;28;20027;-55
2022/09/08 01:42:55;;;;;;;10.10;5.35;;;;;;;21.19;72.05;100889.06;4947754;28;20042;-55
2022/09/08 01:45:21;;;;;;;13.30;5.57;;;;;;;21.19;71.97;100892.59;4944903;28;20046;-53
2022/09/08 01:47:47;;;;;;;12.63;5.40;;;;;;;21.17;72.22;100890.88;4934933;28;20034;-59
2022/09/08 01:50:13;;;;;;;11.70;5.80;;;;;;;21.09;72.51;100891.09;4945963;28;20116;-55
2022/09/08 01:52:38;;;;;;;10.73;5.07;;;;;;;21.17;71.98;100890.88;4949617;28;20109;-55
2022/09/08 01:55:04;;;;;;;10.60;5.30;;;;;;;21.26;71.63;100885.31;4931592;28;20038;-56
2022/09/08 01:57:29;;;;;;;14.10;5.35;;;;;;;21.22;71.95;100887.22;4936049;28;20042;-56
2022/09/08 01:59:55;;;;;;;12.25;5.68;;;;;;;21.25;71.92;100892.41;4939659;28;20042;-54
2022/09/08 02:02:20;;;;;;;11.63;5.65;;;;;;;21.27;71.77;100882.63;4937055;28;20095;-57
2022/09/08 02:04:45;;;;;;;11.30;5.35;;;;;;;21.25;71.79;100883.56;4941268;28;20034;-50
2022/09/08 02:07:11;;;;;;;9.90;4.78;;;;;;;21.27;72.06;100885.28;4950317;28;20088;-51
2022/09/08 02:09:36;;;;;;;12.30;5.35;;;;;;;21.29;71.85;100880.78;4934840;28;20489;-51
2022/09/08 02:12:03;;;;;;;11.95;5.57;;;;;;;21.35;71.72;100880.59;4941328;28;20543;-56
2022/09/08 02:14:28;;;;;;;12.77;5.70;;;;;;;21.35;71.61;100877.94;4947904;28;20074;-55
2022/09/08 02:16:54;;;;;;;11.88;5.22;;;;;;;21.38;71.53;100877.84;4947678;28;20039;-55
2022/09/08 02:19:19;;;;;;;11.48;5.47;;;;;;;21.37;71.81;100870.81;4951607;28;20141;-54
2022/09/08 02:21:45;;;;;;;11.80;5.40;;;;;;;21.38;71.42;100877.00;4942214;28;20049;-52
2022/09/08 02:24:12;;;;;;;11.85;5.53;;;;;;;21.35;71.37;100879.72;4947257;28;20528;-54
2022/09/08 02:26:38;;;;;;;12.27;5.43;;;;;;;21.42;71.21;100878.63;4937230;28;20089;-55
2022/09/08 02:29:08;;;;;;;11.18;5.07;;;;;;;21.38;71.12;100875.22;4945111;28;20845;-54
2022/09/08 02:31:34;;;;;;;8.50;4.75;;;;;;;21.38;71.42;100877.84;4949535;28;20045;-56
2022/09/08 02:33:59;;;;;;;11.02;5.10;;;;;;;21.34;71.42;100873.56;4933591;28;20050;-54
2022/09/08 02:36:25;;;;;;;14.73;5.75;;;;;;;21.22;71.91;100873.09;4952940;28;20057;-55
2022/09/08 02:38:52;;;;;;;12.60;5.60;;;;;;;21.05;72.68;100873.53;4946753;28;20065;-54
2022/09/08 02:41:18;;;;;;;15.63;5.00;;;;;;;21.04;72.59;100872.66;4951384;28;20038;-55
2022/09/08 02:43:44;;;;;;;12.15;4.95;;;;;;;21.02;73.02;100865.69;4939212;28;20836;-52
2022/09/08 02:46:10;;;;;;;13.82;4.70;;;;;;;20.98;73.08;100870.19;4938680;28;20046;-55
2022/09/08 02:48:36;;;;;;;7.43;4.15;;;;;;;21.05;72.85;100853.19;4947318;28;20042;-51
2022/09/08 02:51:03;;;;;;;10.48;3.90;;;;;;;21.07;72.76;100855.81;4944926;28;20053;-54
2022/09/08 02:53:29;;;;;;;11.77;3.80;;;;;;;21.08;72.69;100862.84;4953263;28;20444;-53
2022/09/08 02:55:57;;;;;;;7.28;3.05;;;;;;;21.11;72.32;100859.22;4937773;28;20958;-53
2022/09/08 02:58:23;;;;;;;9.20;3.10;;;;;;;21.19;71.92;100855.47;4952695;28;20060;-53
2022/09/08 03:00:49;;;;;;;6.95;3.10;;;;;;;21.11;71.91;100854.78;4942074;28;20518;-52
2022/09/08 03:03:15;;;;;;;6.35;3.08;;;;;;;21.10;71.94;100855.72;4942628;28;20096;-56
2022/09/08 03:05:40;;;;;;;5.93;2.75;;;;;;;21.07;71.85;100855.81;4953562;28;20030;-56
2022/09/08 03:08:05;;;;;;;9.73;2.90;;;;;;;21.06;71.47;100846.97;4944743;28;20495;-53
2022/09/08 03:10:33;;;;;;;8.18;3.17;;;;;;;20.95;71.63;100846.44;4946379;28;20035;-49
2022/09/08 03:12:59;;;;;;;6.13;2.80;;;;;;;20.84;72.35;100845.91;4938475;28;20035;-53
2022/09/08 03:15:26;;;;;;;9.45;3.17;;;;;;;20.80;72.51;100840.75;4949590;28;20045;-54
2022/09/08 03:17:53;;;;;;;6.18;3.05;;;;;;;20.76;72.66;100839.94;4945704;28;20057;-52
2022/09/08 03:20:20;;;;;;;9.98;3.10;;;;;;;20.79;72.70;100842.53;4943922;28;20416;-53
2022/09/08 03:22:46;;;;;;;6.50;2.70;;;;;;;20.84;72.52;100847.69;4950537;28;20022;-56
2022/09/08 03:25:12;;;;;;;7.00;3.00;;;;;;;20.84;72.64;100850.31;4950012;28;20069;-54
2022/09/08 03:27:38;;;;;;;7.65;3.08;;;;;;;20.82;72.78;100850.34;4938242;28;20591;-54
2022/09/08 03:30:05;;;;;;;6.78;2.90;;;;;;;20.84;72.70;100853.84;4947670;28;20030;-54
2022/09/08 03:32:34;;;;;;;6.13;2.75;;;;;;;20.87;72.62;100845.78;4945415;28;20082;-54
2022/09/08 03:34:59;;;;;;;7.82;2.90;;;;;;;20.82;72.60;100846.84;4952895;28;20052;-55
2022/09/08 03:37:25;;;;;;;8.55;3.17;;;;;;;20.79;72.53;100853.13;4950620;28;20026;-52
2022/09/08 03:39:51;;;;;;;7.40;2.90;;;;;;;20.81;72.57;100847.75;4943177;28;20105;-53
2022/09/08 03:42:17;;;;;;;9.98;3.55;;;;;;;20.67;72.80;100846.34;4944981;28;20668;-52
2022/09/08 03:44:44;;;;;;;8.40;3.42;;;;;;;20.53;73.51;100842.38;4946585;28;20034;-52
2022/09/08 03:47:10;;;;;;;10.02;3.30;;;;;;;20.61;73.19;100851.00;4946758;28;20026;-52
2022/09/08 03:49:36;;;;;;;6.93;3.20;;;;;;;20.64;73.19;100845.59;4951594;28;20054;-53
2022/09/08 03:52:03;;;;;;;6.50;2.80;;;;;;;20.57;73.18;100846.66;4942465;28;20038;-50
2022/09/08 03:54:47;;;;;;;8.05;2.85;;;;;;;20.63;73.39;100849.16;4949333;28;20165;-54
2022/09/08 03:57:13;;;;;;;7.15;3.20;;;;;;;20.59;73.31;100847.50;4950226;28;20133;-57
2022/09/08 03:59:38;;;;;;;8.02;3.15;;;;;;;20.41;74.25;100842.72;4945530;28;20038;-50
2022/09/08 04:02:05;;;;;;;7.68;3.17;;;;;;;20.34;74.51;100839.38;4929550;28;20041;-53
2022/09/08 04:04:30;;;;;;;6.07;2.72;;;;;;;20.49;74.05;100843.38;4946949;28;20477;-55
2022/09/08 04:06:56;;;;;;;9.38;3.42;;;;;;;20.54;73.82;100847.66;4943219;28;20062;-53
2022/09/08 04:09:22;;;;;;;6.32;3.00;;;;;;;20.60;73.54;100850.13;4949897;28;20042;-53
2022/09/08 04:11:48;;;;;;;8.07;3.20;;;;;;;20.56;73.56;100843.16;4937928;28;20378;-53
2022/09/08 04:14:15;;;;;;;6.93;3.03;;;;;;;20.59;73.53;100853.69;4944904;28;20093;-52
2022/09/08 04:16:41;;;;;;;8.27;3.35;;;;;;;20.41;73.57;100850.66;4945285;28;20477;-52
2022/09/08 04:19:06;;;;;;;8.65;3.13;;;;;;;20.39;73.66;100845.41;4951634;28;20061;-56
2022/09/08 04:21:32;;;;;;;7.05;2.92;;;;;;;20.57;73.04;100838.72;4944989;28;20022;-56
2022/09/08 04:23:59;;;;;;;12.30;3.50;;;;;;;20.57;72.98;100833.44;4947248;28;20049;-53
2022/09/08 04:26:24;;;;;;;8.50;3.30;;;;;;;20.57;72.60;100838.72;4940972;28;20747;-54
2022/09/08 04:28:49;;;;;;;9.88;3.38;;;;;;;20.48;72.81;100834.56;4950193;28;20026;-52
2022/09/08 04:31:18;;;;;;;9.75;3.33;;;;;;;20.47;72.84;100827.53;4927661;28;20043;-49
2022/09/08 04:33:43;;;;;;;9.82;3.30;;;;;;;20.57;72.45;100830.78;4950693;28;20045;-52
2022/09/08 04:36:13;;;;;;;8.15;3.50;;;;;;;20.59;72.10;100828.97;4930130;28;20819;-51
2022/09/08 04:38:39;;;;;;;11.93;3.70;;;;;;;20.41;73.09;100835.66;4947035;28;20050;-53
2022/09/08 04:41:07;;;;;;;7.00;3.20;;;;;;;20.50;72.61;100829.22;4937962;28;20026;-53
2022/09/08 04:43:33;;;;;;;11.63;3.83;;;;;;;20.46;72.64;100827.56;4962814;28;20042;-54
2022/09/08 04:46:04;;;;;;;12.38;3.90;;;;;;;20.55;72.21;100835.28;4937474;28;20058;-55
2022/09/08 04:48:31;;;;;;;10.93;4.30;;;;;;;20.37;72.91;100822.53;4945399;28;20076;-53
2022/09/08 04:50:57;;;;;;;9.85;4.50;;;;;;;20.43;72.63;100823.22;4945878;28;20555;-55
2022/09/08 04:53:22;;;;;;;7.38;3.97;;;;;;;20.46;72.35;100833.72;4951438;28;20031;-53
2022/09/08 04:55:48;;;;;;;10.77;4.40;;;;;;;20.30;72.95;100827.09;4937286;28;20130;-56
2022/09/08 04:58:13;;;;;;;9.60;3.90;;;;;;;20.41;72.70;100833.00;4941214;28;20042;-52
2022/09/08 05:00:39;;;;;;;8.68;3.92;;;;;;;20.45;72.47;100839.94;4937002;28;20412;-52
2022/09/08 05:03:04;;;;;;;10.38;4.30;;;;;;;20.36;72.81;100834.91;4936833;28;20037;-57
2022/09/08 05:05:29;;;;;;;9.85;4.78;;;;;;;20.08;73.52;100840.03;4948917;28;20866;-53
2022/09/08 05:07:56;;;;;;;9.15;4.20;;;;;;;20.19;73.29;100834.44;4937454;28;20058;-57
2022/09/08 05:10:22;;;;;;;9.75;4.18;;;;;;;20.26;73.21;100836.88;4942275;28;20619;-52
2022/09/08 05:12:47;;;;;;;8.60;4.22;;;;;;;20.23;73.27;100833.47;4943742;28;20046;-54
2022/09/08 05:15:13;;;;;;;10.25;4.07;;;;;;;20.29;72.97;100833.31;4954974;28;20632;-54
2022/09/08 05:17:38;;;;;;;10.15;4.38;;;;;;;20.24;73.10;100840.50;4934660;28;20054;-51
2022/09/08 05:20:04;;;;;;;9.45;4.30;;;;;;;20.38;72.57;100833.06;4941254;28;20188;-53
2022/09/08 05:22:30;;;;;;;10.27;4.85;;;;;;;20.09;73.32;100835.59;4943546;28;20030;-52
2022/09/08 05:24:55;;;;;;;9.00;4.45;;;;;;;20.12;73.53;100838.19;4940860;28;20046;-56
2022/09/08 05:27:21;;;;;;;8.95;4.65;;;;;;;20.18;73.23;100841.53;4948639;28;20066;-53
2022/09/08 05:29:48;;;;;;;9.52;4.68;;;;;;;20.26;73.11;100847.47;4945867;28;20316;-55
2022/09/08 05:32:13;;;;;;;8.02;4.15;;;;;;;20.34;72.86;100838.50;4939337;28;20078;-55
2022/09/08 05:34:39;;;;;;;8.45;4.55;;;;;;;20.18;73.21;100833.59;4937776;28;20185;-53
2022/09/08 05:37:04;;;;;;;7.20;4.47;;;;;;;20.29;72.84;100835.09;4937403;28;20818;-50
2022/09/08 05:39:29;;;;;;;9.52;4.40;;;;;;;20.20;73.27;100830.88;4954128;28;20039;-52
2022/09/08 05:41:55;;;;;;;7.68;3.85;;;;;;;20.03;73.20;100826.06;4925998;28;20030;-54
2022/09/08 05:44:20;;;;;;;7.68;4.10;;;;;;;20.16;73.07;100827.47;4946709;28;20035;-55
2022/09/08 05:46:45;;;;;;;8.48;4.45;;;;;;;20.08;73.30;100818.84;4942529;28;20026;-55
2022/09/08 05:49:11;;;;;;;9.40;4.80;;;;;;;20.11;73.37;100829.38;4951553;28;20046;-56
2022/09/08 05:51:36;;;;;;;6.57;4.18;;;;;;;20.19;73.33;100827.38;4940563;28;20806;-55
2022/09/08 05:54:02;;;;;;;8.80;4.60;;;;;;;20.01;74.11;100830.50;4928270;28;20043;-51
2022/09/08 05:56:28;;;;;;;8.07;4.30;;;;;;;20.16;73.67;100830.13;4944944;28;21183;-51
2022/09/08 05:59:00;;;;;;;8.20;4.43;;;;;;;20.03;74.29;100825.19;4938653;28;20117;-55
2022/09/08 06:01:28;;;;;;;7.95;4.30;;;;;;;20.14;73.98;100821.34;4952054;28;20081;-51
2022/09/08 06:03:53;;;;;;;8.27;4.65;;;;;;;20.16;74.03;100831.88;4931819;28;20041;-54
2022/09/08 06:06:20;;;;;;;8.52;4.72;;;;;;;20.22;73.92;100823.78;4946653;28;20425;-55
2022/09/08 06:08:45;;;;;;;10.73;5.28;;;;;;;20.31;73.55;100820.03;4951498;28;20022;-54
2022/09/08 06:11:11;;;;;;;8.55;4.85;;;;;;;20.37;73.45;100820.72;4945918;28;20583;-52
2022/09/08 06:13:37;;;;;;;9.57;5.25;;;;;;;20.38;73.36;100819.81;4945286;28;20034;-55
2022/09/08 06:16:08;;;;;;;9.45;5.03;;;;;;;20.36;73.46;100826.09;4942792;28;20045;-52
2022/09/08 06:18:36;;;;;;;7.40;4.70;;;;;;;20.40;73.38;100825.09;4953104;28;20476;-51
2022/09/08 06:21:09;;;;;;;7.10;4.60;;;;;;;20.37;73.45;100828.69;4938619;28;20030;-53
2022/09/08 06:23:35;;;;;;;7.50;4.40;;;;;;;20.41;73.36;100825.06;4954772;28;20113;-53
2022/09/08 06:26:20;;;;;;;9.32;4.70;;;;;;;20.37;73.61;100833.13;4945771;28;20047;-52
2022/09/08 06:29:20;;;;;;;7.43;4.55;;;;;;;20.35;73.64;100827.00;4933745;28;20038;-52
2022/09/08 06:31:57;;;;;;;8.65;4.55;;;;;;;20.46;73.38;100831.09;4935300;28;20658;-55
2022/09/08 06:34:52;;;;;;;8.52;4.57;;;;;;;20.50;73.54;100829.22;4949188;28;20064;-55
2022/09/08 06:37:24;;;;;;;5.97;4.30;;;;;;;20.42;73.64;100829.44;4941021;28;20148;-51
2022/09/08 06:39:57;;;;;;;7.80;4.40;;;;;;;20.51;73.22;100831.81;4944858;28;20537;-55
2022/09/08 06:42:42;;;;;;;8.67;4.83;;;;;;;20.63;72.68;100834.13;4950648;28;20049;-53
2022/09/08 06:45:20;;;;;;;7.10;4.63;;;;;;;20.64;72.60;100832.34;4955416;28;20026;-53
2022/09/08 06:47:57;;;;;;;9.50;5.50;;;;;;;20.59;72.44;100828.97;4948958;28;20956;-53
2022/09/08 06:50:25;;;;;;;9.15;5.20;;;;;;;20.53;72.57;100831.78;4947149;28;20371;-51
2022/09/08 06:52:52;;;;;;;9.60;5.63;;;;;;;20.67;72.68;100832.28;4946725;28;20489;-53
2022/09/08 06:55:26;;;;;;;10.82;6.40;;;;;;;20.73;72.18;100828.56;4948056;28;20065;-52
2022/09/08 06:58:05;;;;;;;8.47;5.50;;;;;;;20.83;71.97;100825.59;4943007;28;20060;-49
2022/09/08 07:00:51;;;;;;;8.25;5.55;;;;;;;20.89;71.99;100824.56;4948823;28;20121;-56
2022/09/08 07:03:20;;;;;;;9.32;5.60;;;;;;;20.95;71.78;100827.03;4955414;28;20105;-56
2022/09/08 07:06:08;;;;;;;9.65;5.68;;;;;;;20.96;71.74;100820.81;4953960;28;20070;-56
2022/09/08 07:08:46;;;;;;;8.32;5.82;;;;;;;21.11;71.21;100825.63;4948580;28;20485;-53
2022/09/08 07:11:30;;;;;;;9.63;6.22;;;;;;;21.15;71.16;100829.97;4946822;28;20072;-53
2022/09/08 07:14:17;;;;;;;11.18;6.57;;;;;;;21.13;71.05;100828.25;4942582;28;20038;-52
2022/09/08 07:16:49;;;;;;;11.45;6.80;;;;;;;21.12;70.98;100832.66;4950646;28;20135;-53
2022/09/08 07:19:22;;;;;;;11.93;7.15;;;;;;;21.08;70.80;100836.34;4947999;28;20141;-56
2022/09/08 07:22:25;;;;;;;10.10;7.22;;;;;;;21.19;70.45;100833.38;4946816;28;20034;-54
2022/09/08 07:24:53;;;;;;;10.85;7.45;;;;;;;21.20;70.16;100832.47;4954530;28;20137;-54
2022/09/08 07:27:18;;;;;;;12.27;8.00;;;;;;;21.24;69.65;100827.03;4947737;28;20040;-55
2022/09/08 07:29:50;;;;;;;13.77;8.18;;;;;;;21.37;69.97;100825.72;4947726;28;20538;-53
2022/09/08 07:32:36;;;;;;;14.88;8.30;;;;;;;21.43;69.71;100833.50;4943847;28;20105;-51
2022/09/08 07:35:28;;;;;;;13.68;8.40;;;;;;;21.36;69.54;100833.72;4948965;28;20030;-53
2022/09/08 07:38:03;;;;;;;12.98;8.73;;;;;;;21.57;69.05;100834.84;4945715;28;20038;-54
2022/09/08 07:40:40;;;;;;;13.38;8.88;;;;;;;21.58;68.23;100829.50;4942886;28;20110;-49
2022/09/08 07:43:11;;;;;;;14.20;8.70;;;;;;;21.68;68.83;100832.69;4947607;28;20074;-55
2022/09/08 07:45:48;;;;;;;13.15;8.95;;;;;;;21.81;67.88;100834.91;4950463;28;20030;-49
2022/09/08 07:48:26;;;;;;;13.57;9.13;;;;;;;21.61;67.02;100826.72;4944767;28;20038;-54
2022/09/08 07:51:06;;;;;;;11.63;8.52;;;;;;;21.63;67.65;100831.97;4955553;28;20132;-57
2022/09/08 07:53:59;;;;;;;15.18;9.40;;;;;;;21.68;68.17;100835.34;4951941;28;20042;-54
2022/09/08 07:56:40;;;;;;;14.80;9.20;;;;;;;21.80;68.23;100826.97;4950432;28;20046;-53
2022/09/08 07:59:21;;;;;;;13.30;9.60;;;;;;;21.63;67.56;100827.56;4946970;28;20034;-57
2022/09/08 08:02:44;;;;;;;14.32;9.73;;;;;;;22.04;66.59;100830.63;4949531;28;20046;-57
2022/09/08 08:05:09;;;;;;;15.10;9.75;;;;;;;22.19;66.22;100836.28;4928438;28;20891;-53
2022/09/08 08:07:42;;;;;;;16.05;10.27;;;;;;;22.08;65.86;100834.94;4922062;28;20202;-54
2022/09/08 08:10:25;;;;;;;16.77;10.90;;;;;;;21.97;66.07;100837.06;4938248;28;21038;-52
2022/09/08 08:13:02;;;;;;;14.23;10.07;;;;;;;22.29;64.74;100836.81;4939682;28;20408;-52
2022/09/08 08:15:47;;;;;;;16.73;10.40;;;;;;;21.95;65.49;100844.19;4932906;28;20378;-56
2022/09/08 08:18:13;;;;;;;14.85;10.00;;;;;;;21.62;66.72;100847.03;4935175;28;20527;-53
2022/09/08 08:20:41;;;;;;;13.95;9.98;;;;;;;21.97;66.06;100845.03;4941395;28;20034;-54
2022/09/08 08:23:24;;;;;;;12.30;9.50;;;;;;;21.78;65.69;100842.06;4945533;28;20551;-54
2022/09/08 08:26:05;;;;;;;14.20;9.35;;;;;;;21.83;66.59;100848.97;4935049;28;20034;-57
2022/09/08 08:28:40;;;;;;;11.90;9.48;;;;;;;22.17;65.47;100846.09;4948557;28;20921;-58
2022/09/08 08:31:23;;;;;;;13.05;8.70;;;;;;;22.18;64.65;100850.47;4918493;28;20414;-54
2022/09/08 08:34:01;;;;;;;14.52;8.43;;;;;;;22.90;63.38;100851.41;4941799;28;20056;-53
2022/09/08 08:36:29;;;;;;;14.10;8.27;;;;;;;23.21;60.53;100848.44;4938749;28;20038;-57
2022/09/08 08:39:07;;;;;;;12.68;7.85;;;;;;;23.74;58.96;100843.66;4945497;28;21038;-52
2022/09/08 08:41:48;;;;;;;17.13;8.45;;;;;;;23.76;59.68;100846.25;4951997;28;20037;-52
2022/09/08 08:44:19;;;;;;;13.60;8.13;;;;;;;23.71;58.90;100853.56;4937683;28;20041;-56
2022/09/08 08:47:22;;;;;;;10.73;7.70;;;;;;;22.98;60.28;100859.13;4944752;28;20097;-55
2022/09/08 08:50:18;;;;;;;9.85;6.97;;;;;;;23.13;60.38;100865.63;4943532;28;20034;-55
2022/09/08 08:52:50;;;;;;;10.00;6.32;;;;;;;22.29;61.84;100866.03;4940502;28;20041;-53
2022/09/08 08:55:35;;;;;;;9.25;5.30;;;;;;;22.80;62.51;100868.66;4943566;28;20048;-53
2022/09/08 08:58:33;;;;;;;8.32;5.90;;;;;;;22.77;61.50;100865.22;4939224;28;20155;-54
2022/09/08 09:01:13;;;;;;;10.38;5.80;;;;;;;22.50;63.52;100867.94;4909513;28;20398;-57
2022/09/08 09:03:57;;;;;;;8.65;4.80;;;;;;;23.00;60.68;100862.56;4947198;28;20226;-56
2022/09/08 09:06:34;;;;;;;7.95;5.05;;;;;;;22.59;61.38;100869.38;4947325;28;20541;-58
2022/09/08 09:09:37;;;;;;;8.98;5.38;;;;;;;22.59;62.62;100861.41;4943655;28;20089;-58
2022/09/08 09:12:33;;;;;;;7.55;5.80;;;;;;;21.80;63.69;100861.47;4931569;28;20038;-57
2022/09/08 09:15:20;;;;;;;9.40;5.10;;;;;;;22.31;62.16;100864.19;4945175;28;20496;-53
2022/09/08 09:17:51;;;;;;;9.82;4.85;;;;;;;22.63;62.26;100860.38;4941272;28;20042;-56
2022/09/08 09:20:50;;;;;;;8.60;4.40;;;;;;;22.54;60.69;100866.03;4948458;28;20054;-58
2022/09/08 09:23:18;;;;;;;11.32;4.10;;;;;;;23.00;60.09;100851.91;4945245;28;20489;-55
2022/09/08 09:26:13;;;;;;;12.10;4.00;;;;;;;23.12;59.00;100855.91;4939322;28;20054;-55
2022/09/08 09:28:44;;;;;;;;;;;;;;;23.08;58.69;100855.16;4928768;28;20141;-59
2022/09/08 09:31:34;;;;;;;8.60;3.45;;;;;;;22.73;61.44;100856.50;4945005;28;19928;-58
2022/09/08 09:34:21;;;;;;;7.70;3.35;;;;;;;22.43;61.49;100858.44;4936747;28;20030;-54
2022/09/08 09:36:58;;;;;;;4.53;2.72;;;;;;;22.79;59.54;100850.97;4942156;28;20440;-54
2022/09/08 09:39:23;;;;;;;6.32;2.90;;;;;;;23.10;60.33;100850.66;4944037;28;20041;-56
2022/09/08 09:42:28;;;;;;;5.43;2.70;;;;;;;23.41;56.84;100848.53;4939385;28;20062;-58
2022/09/08 09:44:56;;;;;;;;;;;;;;;23.36;56.59;100858.47;4941728;28;20392;-59
2022/09/08 09:47:42;;;;;;;7.85;2.88;;;;;;;23.06;56.79;100863.19;4947116;28;19961;-58
2022/09/08 09:50:45;;;;;;;6.25;2.70;;;;;;;23.02;56.25;100856.28;4938017;28;20284;-54
2022/09/08 09:53:48;;;;;;;5.85;2.55;;;;;;;23.18;57.82;100855.66;4948403;28;20045;-57
2022/09/08 09:56:51;;;;;;;5.80;2.47;;;;;;;22.88;58.68;100855.03;4925567;28;20799;-56
2022/09/08 09:59:48;;;;;;;7.28;2.40;;;;;;;23.39;56.23;100850.38;4939836;28;20038;-56
2022/09/08 10:02:44;;;;;;;6.10;2.33;;;;;;;23.61;55.89;100850.41;4929443;28;20092;-59
2022/09/08 10:05:44;;;;;;;6.63;2.47;;;;;;;23.49;55.28;100847.38;4942068;28;20400;-57
2022/09/08 10:08:29;;;;;;;7.18;2.97;;;;;;;23.25;57.06;100851.84;4944396;28;20038;-57
2022/09/08 10:11:17;;;;;;;5.13;2.50;;;;;;;23.62;56.32;100853.94;4957466;28;20037;-57
2022/09/08 10:14:09;;;;;;;4.97;2.42;;;;;;;23.66;54.99;100855.56;4965438;28;20217;-56
2022/09/08 10:16:59;;;;;;;8.32;2.92;;;;;;;23.31;54.92;100862.25;4953786;28;20050;-57
2022/09/08 10:19:54;;;;;;;5.78;2.50;;;;;;;23.65;54.80;100856.50;4945387;28;20567;-54
2022/09/08 10:22:44;;;;;;;6.55;2.60;;;;;;;23.39;56.08;100863.69;4943286;28;21017;-57
2022/09/08 10:25:31;;;;;;;6.07;2.53;;;;;;;22.89;55.41;100859.44;4952345;28;20077;-56
2022/09/08 10:28:15;;;;;;;7.05;2.30;;;;;;;23.61;55.26;100857.53;4950436;28;20022;-58
2022/09/08 10:31:20;;;;;;;9.07;3.03;;;;;;;23.86;52.68;100858.25;4951663;28;20057;-56
2022/09/08 10:34:23;;;;;;;5.45;2.97;;;;;;;24.16;51.95;100854.28;4950344;28;20039;-58
2022/09/08 10:37:04;;;;;;;8.25;2.50;;;;;;;;;;4944573;28;20045;-55
2022/09/08 10:39:43;;;;;;;8.43;2.38;;;;;;;24.05;51.64;100859.22;4953278;28;20072;-58
2022/09/08 10:42:36;;;;;;;5.22;2.40;;;;;;;23.94;52.56;100857.94;4942706;28;20565;-56
2022/09/08 10:45:18;;;;;;;7.13;2.63;;;;;;;24.34;52.21;100857.97;4941758;28;20177;-55
2022/09/08 10:48:12;;;;;;;6.38;2.20;;;;;;;24.64;52.27;100856.63;4956054;28;20034;-54
2022/09/08 10:50:49;;;;;;;9.98;2.60;;;;;;;24.72;49.21;100866.94;4945629;28;20245;-53
2022/09/08 10:53:33;;;;;;;6.07;2.63;;;;;;;24.19;50.56;100856.00;4955750;28;20104;-58
2022/09/08 10:56:15;;;;;;;6.53;2.63;;;;;;;;;;4926912;28;20485;-53
2022/09/08 10:59:00;;;;;;;8.70;3.08;;;;;;;24.33;49.67;100855.41;4943510;28;20050;-55
2022/09/08 11:01:43;;;;;;;7.28;3.28;;;;;;;24.25;49.03;100856.59;4945354;28;20050;-54
2022/09/08 11:04:09;;;;;;;6.43;3.35;;;;;;;24.57;49.75;100859.66;4937268;28;20066;-56
2022/09/08 11:06:53;;;;;;;8.30;3.20;;;;;;;24.66;47.78;100860.09;4950596;28;20456;-56
2022/09/08 11:09:24;;;;;;;6.78;2.90;;;;;;;24.55;47.91;100864.19;4933439;28;20050;-57
2022/09/08 11:12:16;;;;;;;11.20;2.78;;;;;;;24.61;48.90;100862.13;4944560;28;20042;-57
2022/09/08 11:14:58;;;;;;;7.10;2.28;;;;;;;24.83;47.45;100862.00;4932905;28;20042;-57
2022/09/08 11:17:28;;;;;;;8.18;2.63;;;;;;;24.67;48.19;100861.84;4944073;28;20149;-57
2022/09/08 11:20:21;;;;;;;7.65;2.47;;;;;;;24.92;47.92;100848.28;4938076;28;21006;-57
2022/09/08 11:23:13;;;;;;;6.55;2.17;;;;;;;25.07;46.99;100843.19;4949787;28;20034;-56
2022/09/08 11:25:44;;;;;;;7.38;2.50;;;;;;;24.72;48.74;100845.63;4925734;28;20108;-58
2022/09/08 11:28:40;;;;;;;8.00;2.22;;;;;;;24.45;49.54;100844.22;4945830;28;20620;-56
2022/09/08 11:31:17;;;;;;;5.88;2.17;;;;;;;24.59;46.88;100834.66;4951683;28;20030;-58
2022/09/08 11:34:09;;;;;;;6.95;2.20;;;;;;;24.64;46.03;100840.63;4945666;28;20034;-58
2022/09/08 11:37:07;;;;;;;9.57;2.60;;;;;;;24.53;46.82;100847.38;4953673;28;20742;-53
2022/09/08 11:39:57;;;;;;;8.13;2.60;;;;;;;24.30;48.00;100840.41;4952578;28;20029;-58
2022/09/08 11:42:39;;;;;;;6.55;2.40;;;;;;;24.73;47.58;100843.81;4934405;28;20532;-58
2022/09/08 11:45:29;;;;;;;7.80;2.78;;;;;;;25.18;46.30;100847.06;4954152;28;20045;-58
2022/09/08 11:48:39;;;;;;;9.18;2.80;;;;;;;25.27;45.90;100829.75;4940938;28;20037;-59
2022/09/08 11:51:13;;;;;;;8.57;2.95;;;;;;;25.22;45.64;100837.09;4931349;28;20312;-55
2022/09/08 11:54:02;;;;;;;7.55;2.70;;;;;;;25.71;43.97;100832.94;4931486;28;20034;-55
2022/09/08 11:56:42;;;;;;;7.32;3.10;;;;;;;26.04;42.77;100835.72;4938651;28;20393;-56
2022/09/08 11:59:40;;;;;;;8.25;2.90;;;;;;;25.57;42.99;100830.94;4927274;28;20058;-58
2022/09/08 12:02:35;;;;;;;7.22;2.47;;;;;;;25.52;42.85;100824.06;4941360;28;20435;-55